Disclaimer

Please do not use the information listed here in-flight or in-navigation, as they are not provided to us by the airports but are provided by volunteers, so they might be outdated.

Search


Regions


Airport information page

Radio informations:
Tower (TWR) - 122.7 MHz
RDO - 6577 MHz
Automatic Terminal Information Service (ATIS) - 383.0 MHz
Approach (APP) - 125.55 MHz

Airport informations:
Latitude: 06° 31' 11.72" N
Longitude: 101° 44' 36.24" E
Elevation: 16 feet - 5 meters
Operating hours: From sunrise to sunset (SR-SS)
Operating agency: Military-civil joint use airport
Timezone: UTC+7
Fuel: N/A

Runway information:
02/20 - 6562 x 148 feet< - >2000 x 45 meters

Recent METARs:
VTSC 190200Z 23003KT 140V300 9999 FEW020 29/25 Q1013 NOSIG
VTSC 190200Z 23003KT 140V300 9999 FEW020 29/25 Q1013 NOSIG
VTSC 190300Z 26005KT 220V300 9999 FEW020 BKN060 31/25 Q1013 NOSIG

Airport on the map: